createdAt,value
2018-06-16T00:01:31.096Z,14.70
2018-06-16T00:04:00.337Z,14.60
2018-06-16T00:06:29.690Z,14.60
2018-06-16T00:08:59.262Z,14.60
2018-06-16T00:11:28.826Z,14.60
2018-06-16T00:13:58.069Z,14.40
2018-06-16T00:16:27.594Z,14.40
2018-06-16T00:18:56.838Z,14.40
2018-06-16T00:21:26.080Z,14.40
2018-06-16T00:23:55.349Z,14.40
2018-06-16T00:26:24.739Z,14.40
2018-06-16T00:28:54.063Z,14.30
2018-06-16T00:31:23.311Z,14.30
2018-06-16T00:33:52.704Z,14.30
2018-06-16T00:36:22.107Z,14.20
2018-06-16T00:38:51.504Z,14.20
2018-06-16T00:41:20.796Z,14.10
2018-06-16T00:43:50.053Z,14.10
2018-06-16T00:46:19.390Z,14.10
2018-06-16T00:48:48.628Z,14.00
2018-06-16T00:51:17.883Z,14.00
2018-06-16T00:53:47.218Z,14.00
2018-06-16T00:56:16.491Z,14.00
2018-06-16T00:58:45.767Z,14.00
2018-06-16T01:01:15.043Z,14.00
2018-06-16T01:03:44.327Z,14.00
2018-06-16T01:06:13.617Z,13.90
2018-06-16T01:08:42.879Z,13.80
2018-06-16T01:11:12.217Z,13.80
2018-06-16T01:13:41.471Z,13.80
2018-06-16T01:16:10.766Z,13.80
2018-06-16T01:18:40.017Z,13.70
2018-06-16T01:21:09.293Z,13.70
2018-06-16T01:23:38.533Z,13.70
2018-06-16T01:26:07.852Z,13.70
2018-06-16T01:28:37.169Z,13.70
2018-06-16T01:31:06.454Z,13.70
2018-06-16T01:33:35.788Z,13.60
2018-06-16T01:36:05.083Z,13.60
2018-06-16T01:38:34.391Z,13.60
2018-06-16T01:41:03.689Z,13.60
2018-06-16T01:43:32.951Z,13.60
2018-06-16T01:46:02.255Z,13.60
2018-06-16T01:48:31.685Z,13.60
2018-06-16T01:51:01.019Z,13.60
2018-06-16T01:53:30.273Z,13.60
2018-06-16T01:55:59.517Z,13.60
2018-06-16T01:58:29.939Z,13.60
2018-06-16T02:00:59.423Z,13.60
2018-06-16T02:03:28.686Z,13.60
2018-06-16T02:05:58.024Z,13.70
2018-06-16T02:08:27.354Z,13.70
2018-06-16T02:10:56.650Z,13.70
2018-06-16T02:13:26.003Z,13.70
2018-06-16T02:15:55.249Z,13.70
2018-06-16T02:18:24.480Z,13.70
2018-06-16T02:23:22.543Z,13.70
2018-06-16T02:25:52.064Z,13.70
2018-06-16T02:28:21.534Z,13.90
2018-06-16T02:30:50.767Z,13.90
2018-06-16T02:35:48.966Z,13.90
2018-06-16T02:38:18.230Z,13.90
2018-06-16T02:40:48.486Z,13.80
2018-06-16T02:43:17.724Z,13.80
2018-06-16T02:45:46.969Z,13.80
2018-06-16T02:48:16.304Z,13.80
2018-06-16T02:50:45.615Z,13.80
2018-06-16T02:53:14.892Z,13.80
2018-06-16T02:55:44.208Z,13.80
2018-06-16T02:58:13.604Z,13.80
2018-06-16T03:00:42.975Z,13.80
2018-06-16T03:03:12.251Z,13.80
2018-06-16T03:05:41.517Z,13.90
2018-06-16T03:08:10.817Z,13.80
2018-06-16T03:10:40.097Z,13.80
2018-06-16T03:13:09.458Z,13.80
2018-06-16T03:15:38.719Z,13.80
2018-06-16T03:18:08.110Z,13.80
2018-06-16T03:20:37.374Z,13.80
2018-06-16T03:23:06.634Z,13.80
2018-06-16T03:25:35.930Z,13.80
2018-06-16T03:28:05.216Z,13.90
2018-06-16T03:30:34.533Z,13.90
2018-06-16T03:33:03.800Z,13.90
2018-06-16T03:35:33.075Z,13.90
2018-06-16T03:38:02.333Z,13.80
2018-06-16T03:40:31.764Z,13.90
2018-06-16T03:43:01.034Z,13.90
2018-06-16T03:45:30.277Z,14.00
2018-06-16T03:47:59.641Z,14.00
2018-06-16T03:50:29.898Z,14.10
2018-06-16T03:52:59.162Z,14.10
2018-06-16T03:55:28.688Z,14.10
2018-06-16T03:57:57.922Z,14.20
2018-06-16T04:00:27.256Z,14.20
2018-06-16T04:02:56.554Z,14.30
2018-06-16T04:05:26.163Z,14.30
2018-06-16T04:07:55.440Z,14.30
2018-06-16T04:10:24.759Z,14.70
2018-06-16T04:12:54.040Z,15.20
2018-06-16T04:15:23.312Z,15.50
2018-06-16T04:17:52.632Z,15.30
2018-06-16T04:20:21.909Z,15.00
2018-06-16T04:22:52.400Z,15.10
2018-06-16T04:25:21.661Z,15.40
2018-06-16T04:27:51.069Z,15.00
2018-06-16T04:30:20.333Z,15.00
2018-06-16T04:32:49.673Z,14.90
2018-06-16T04:37:47.763Z,14.90
2018-06-16T04:40:17.196Z,14.80
2018-06-16T04:42:46.428Z,15.00
2018-06-16T04:45:15.852Z,15.20
2018-06-16T04:47:45.132Z,15.30
2018-06-16T04:50:14.414Z,15.20
2018-06-16T04:52:43.657Z,15.30
2018-06-16T04:55:12.990Z,15.30
2018-06-16T04:57:42.242Z,15.40
2018-06-16T05:00:11.497Z,15.40
2018-06-16T05:02:40.842Z,15.50
2018-06-16T05:05:10.411Z,15.40
2018-06-16T05:07:39.691Z,15.50
2018-06-16T05:10:09.241Z,15.70
2018-06-16T05:12:38.464Z,15.80
2018-06-16T05:15:08.037Z,15.80
2018-06-16T05:17:37.301Z,15.90
2018-06-16T05:20:06.684Z,15.70
2018-06-16T05:22:35.987Z,15.60
2018-06-16T05:27:34.082Z,15.60
2018-06-16T05:30:03.404Z,15.90
2018-06-16T05:32:32.665Z,15.70
2018-06-16T05:35:02.004Z,15.60
2018-06-16T05:37:31.239Z,15.40
2018-06-16T05:40:00.524Z,15.40
2018-06-16T05:42:29.789Z,15.60
2018-06-16T05:44:59.230Z,15.60
2018-06-16T05:47:28.491Z,15.70
2018-06-16T05:49:57.781Z,15.80
2018-06-16T05:52:27.331Z,15.90
2018-06-16T05:54:56.936Z,16.00
2018-06-16T05:57:26.309Z,16.00
2018-06-16T05:59:55.590Z,16.20
2018-06-16T06:04:54.015Z,16.60
2018-06-16T06:07:23.292Z,16.80
2018-06-16T06:09:52.580Z,17.00
2018-06-16T06:12:21.891Z,17.10
2018-06-16T06:14:51.150Z,16.90
2018-06-16T06:17:20.410Z,17.00
2018-06-16T06:19:49.683Z,17.10
2018-06-16T06:24:47.747Z,17.80
2018-06-16T06:27:16.997Z,17.80
2018-06-16T06:29:46.285Z,17.80
2018-06-16T06:32:15.606Z,17.90
2018-06-16T06:34:45.721Z,17.90
2018-06-16T06:37:15.059Z,17.90
2018-06-16T06:42:13.069Z,18.10
2018-06-16T06:44:42.411Z,18.30
2018-06-16T06:47:11.713Z,18.60
2018-06-16T06:49:41.045Z,18.60
2018-06-16T06:52:10.277Z,18.60
2018-06-16T06:54:39.677Z,18.90
2018-06-16T06:57:08.661Z,18.90
2018-06-16T07:02:06.736Z,18.80
2018-06-16T07:04:35.711Z,19.10
2018-06-16T07:07:04.769Z,19.30
2018-06-16T07:09:34.010Z,19.20
2018-06-16T07:12:03.301Z,19.10
2018-06-16T07:14:32.551Z,19.40
2018-06-16T07:17:01.879Z,19.70
2018-06-16T07:19:31.150Z,19.50
2018-06-16T07:22:00.380Z,19.80
2018-06-16T07:24:29.657Z,20.30
2018-06-16T07:26:58.978Z,19.90
2018-06-16T07:29:28.264Z,20.30
2018-06-16T07:31:57.541Z,20.80
2018-06-16T07:34:26.833Z,21.20
2018-06-16T07:36:56.158Z,21.70
2018-06-16T07:39:25.424Z,22.10
2018-06-16T07:41:54.929Z,22.00
2018-06-16T07:44:24.206Z,21.60
2018-06-16T07:46:53.567Z,22.00
2018-06-16T07:49:22.889Z,21.80
2018-06-16T07:51:52.250Z,21.60
2018-06-16T07:54:21.510Z,21.80
2018-06-16T07:56:50.943Z,21.90
2018-06-16T07:59:20.173Z,21.80
2018-06-16T08:01:49.433Z,21.60
2018-06-16T08:04:18.889Z,21.50
2018-06-16T08:06:48.182Z,21.70
2018-06-16T08:09:17.576Z,22.10
2018-06-16T08:11:46.979Z,21.70
2018-06-16T08:14:16.395Z,21.70
2018-06-16T08:16:45.679Z,22.20
2018-06-16T08:19:14.999Z,22.10
2018-06-16T08:21:44.286Z,22.80
2018-06-16T08:24:13.865Z,22.60
2018-06-16T08:26:43.227Z,22.90
2018-06-16T08:29:12.478Z,22.60
2018-06-16T08:31:41.513Z,22.90
2018-06-16T08:34:10.593Z,23.30
2018-06-16T08:36:39.982Z,23.00
2018-06-16T08:39:11.078Z,23.10
2018-06-16T08:41:41.199Z,23.40
2018-06-16T08:44:10.573Z,23.80
2018-06-16T08:46:39.875Z,23.90
2018-06-16T08:49:10.056Z,23.40
2018-06-16T08:51:39.343Z,23.00
2018-06-16T08:56:37.437Z,23.10
2018-06-16T09:01:35.485Z,23.70
2018-06-16T09:04:04.767Z,24.10
2018-06-16T09:06:34.030Z,24.90
2018-06-16T09:09:03.676Z,25.90
2018-06-16T09:11:33.033Z,25.70
2018-06-16T09:14:02.551Z,26.00
2018-06-16T09:16:31.843Z,25.90
2018-06-16T09:19:01.160Z,25.70
2018-06-16T09:21:30.487Z,25.90
2018-06-16T09:23:59.743Z,25.10
2018-06-16T09:26:29.159Z,25.20
2018-06-16T09:28:58.508Z,25.70
2018-06-16T09:31:27.811Z,25.00
2018-06-16T09:33:57.441Z,25.50
2018-06-16T09:36:26.862Z,24.60
2018-06-16T09:43:54.184Z,25.30
2018-06-16T09:46:23.669Z,24.80
2018-06-16T09:48:53.005Z,24.90
2018-06-16T09:51:23.219Z,25.70
2018-06-16T09:53:52.541Z,25.60
2018-06-16T09:56:21.927Z,25.80
2018-06-16T09:58:51.233Z,25.90
2018-06-16T10:01:20.650Z,25.80
2018-06-16T10:06:18.931Z,26.50
2018-06-16T10:08:48.223Z,26.30
2018-06-16T10:11:17.578Z,25.80
2018-06-16T10:13:47.185Z,26.00
2018-06-16T10:16:16.567Z,26.10
2018-06-16T10:18:45.910Z,25.80
2018-06-16T10:21:15.215Z,26.20
2018-06-16T10:23:44.475Z,26.00
2018-06-16T10:26:13.811Z,26.20
2018-06-16T10:28:43.151Z,25.50
2018-06-16T10:33:41.953Z,25.30
2018-06-16T10:36:11.276Z,25.90
2018-06-16T10:38:40.606Z,26.10
2018-06-16T10:41:09.968Z,25.80
2018-06-16T10:43:39.220Z,25.40
2018-06-16T10:46:08.641Z,26.10
2018-06-16T10:48:37.914Z,26.50
2018-06-16T10:51:07.272Z,27.30
2018-06-16T10:53:36.605Z,27.20
2018-06-16T10:56:06.005Z,26.20
2018-06-16T10:58:35.270Z,26.30
2018-06-16T11:01:04.648Z,26.40
2018-06-16T11:03:34.246Z,26.10
2018-06-16T11:06:03.676Z,26.00
2018-06-16T11:08:33.033Z,25.80
2018-06-16T11:11:02.366Z,27.20
2018-06-16T11:13:31.662Z,27.60
2018-06-16T11:16:01.009Z,27.00
2018-06-16T11:18:30.461Z,26.90
2018-06-16T11:20:59.842Z,26.90
2018-06-16T11:23:30.223Z,26.90
2018-06-16T11:28:28.450Z,27.00
2018-06-16T11:30:57.895Z,26.80
2018-06-16T11:33:27.360Z,27.90
2018-06-16T11:35:56.728Z,28.20
2018-06-16T11:38:26.038Z,27.50
2018-06-16T11:40:55.613Z,26.90
2018-06-16T11:43:25.048Z,27.40
2018-06-16T11:45:55.484Z,28.20
2018-06-16T11:48:24.848Z,28.00
2018-06-16T11:50:54.232Z,27.20
2018-06-16T11:53:24.354Z,27.20
2018-06-16T11:55:53.644Z,26.60
2018-06-16T11:58:23.504Z,26.70
2018-06-16T12:00:52.801Z,26.70
2018-06-16T12:03:23.182Z,26.50
2018-06-16T12:05:52.495Z,27.80
2018-06-16T12:08:21.990Z,27.40
2018-06-16T12:10:51.409Z,26.40
2018-06-16T12:13:20.855Z,25.50
2018-06-16T12:15:50.449Z,25.40
2018-06-16T12:18:19.748Z,25.70
2018-06-16T12:20:49.130Z,25.70
2018-06-16T12:23:18.400Z,25.60
2018-06-16T12:25:47.729Z,25.20
2018-06-16T12:28:17.252Z,25.60
2018-06-16T12:33:15.583Z,26.10
2018-06-16T12:35:44.862Z,26.10
2018-06-16T12:38:14.313Z,26.40
2018-06-16T12:40:43.737Z,26.10
2018-06-16T12:43:13.191Z,25.80
2018-06-16T12:45:42.593Z,25.90
2018-06-16T12:48:11.947Z,26.50
2018-06-16T12:50:41.394Z,26.50
2018-06-16T12:53:10.736Z,26.60
2018-06-16T12:55:40.132Z,26.30
2018-06-16T12:58:09.640Z,26.30
2018-06-16T13:03:08.229Z,26.10
2018-06-16T13:05:37.709Z,26.80
2018-06-16T13:08:07.257Z,26.40
2018-06-16T13:10:37.722Z,26.50
2018-06-16T13:13:07.136Z,26.50
2018-06-16T13:15:37.244Z,26.60
2018-06-16T13:18:07.639Z,27.00
2018-06-16T13:20:37.322Z,26.20
2018-06-16T13:23:06.919Z,26.30
2018-06-16T13:25:36.349Z,26.60
2018-06-16T13:28:06.141Z,27.00
2018-06-16T13:30:35.471Z,27.10
2018-06-16T13:35:33.660Z,26.60
2018-06-16T13:40:32.321Z,26.00
2018-06-16T13:43:01.802Z,26.20
2018-06-16T13:45:31.242Z,26.20
2018-06-16T13:48:01.426Z,26.20
2018-06-16T13:50:30.867Z,26.40
2018-06-16T13:53:01.374Z,26.00
2018-06-16T13:55:31.068Z,25.90
2018-06-16T13:58:00.595Z,26.10
2018-06-16T14:00:29.841Z,26.60
2018-06-16T14:05:28.043Z,26.60
2018-06-16T14:07:57.352Z,26.60
2018-06-16T14:10:26.636Z,27.00
2018-06-16T14:15:24.782Z,26.70
2018-06-16T14:17:54.070Z,26.30
2018-06-16T14:20:24.236Z,26.20
2018-06-16T14:22:53.697Z,26.60
2018-06-16T14:25:23.179Z,26.70
2018-06-16T14:27:53.052Z,26.60
2018-06-16T14:30:22.356Z,26.40
2018-06-16T14:32:51.715Z,26.70
2018-06-16T14:35:20.984Z,27.10
2018-06-16T14:37:50.332Z,27.30
2018-06-16T14:40:19.593Z,26.90
2018-06-16T14:42:49.217Z,26.00
2018-06-16T14:45:18.632Z,26.30
2018-06-16T14:47:48.013Z,26.50
2018-06-16T14:50:17.403Z,26.50
2018-06-16T14:52:47.728Z,26.40
2018-06-16T14:55:17.016Z,25.80
2018-06-16T14:57:46.324Z,25.40
2018-06-16T15:00:15.751Z,25.20
2018-06-16T15:02:45.231Z,25.10
2018-06-16T15:05:15.059Z,25.00
2018-06-16T15:07:44.693Z,24.80
2018-06-16T15:10:14.023Z,24.60
2018-06-16T15:12:44.101Z,24.50
2018-06-16T15:15:13.396Z,24.60
2018-06-16T15:17:42.749Z,24.50
2018-06-16T15:25:09.887Z,24.20
2018-06-16T15:27:39.250Z,24.10
2018-06-16T15:30:08.632Z,24.10
2018-06-16T15:32:38.792Z,24.00
2018-06-16T15:35:08.199Z,24.20
2018-06-16T15:37:37.628Z,24.20
2018-06-16T15:40:07.052Z,24.10
2018-06-16T15:42:36.346Z,24.20
2018-06-16T15:45:07.128Z,24.10
2018-06-16T15:47:36.523Z,24.30
2018-06-16T15:50:06.127Z,24.30
2018-06-16T15:52:35.509Z,24.30
2018-06-16T15:55:05.075Z,24.40
2018-06-16T15:57:34.326Z,24.30
2018-06-16T16:00:05.179Z,24.20
2018-06-16T16:02:34.461Z,24.10
2018-06-16T16:05:03.776Z,24.20
2018-06-16T16:07:33.916Z,24.10
2018-06-16T16:10:03.270Z,24.00
2018-06-16T16:15:01.583Z,24.00
2018-06-16T16:17:30.885Z,24.00
2018-06-16T16:20:00.255Z,24.20
2018-06-16T16:22:29.554Z,24.10
2018-06-16T16:24:58.853Z,24.30
2018-06-16T16:27:28.221Z,24.60
2018-06-16T16:29:57.545Z,25.10
2018-06-16T16:32:26.917Z,25.40
2018-06-16T16:34:56.269Z,25.20
2018-06-16T16:37:25.549Z,25.50
2018-06-16T16:39:55.240Z,25.50
2018-06-16T16:42:24.574Z,25.60
2018-06-16T16:44:54.104Z,25.10
2018-06-16T16:47:23.611Z,24.70
2018-06-16T16:49:52.972Z,24.50
2018-06-16T16:52:22.261Z,24.40
2018-06-16T16:54:51.565Z,24.30
2018-06-16T16:57:20.799Z,24.20
2018-06-16T16:59:50.155Z,24.10
2018-06-16T17:02:19.702Z,24.00
2018-06-16T17:04:49.660Z,23.90
2018-06-16T17:07:19.675Z,24.00
2018-06-16T17:09:48.932Z,23.80
2018-06-16T17:12:18.200Z,23.70
2018-06-16T17:14:47.528Z,23.60
2018-06-16T17:17:16.830Z,23.70
2018-06-16T17:19:46.267Z,23.70
2018-06-16T17:22:15.535Z,23.70
2018-06-16T17:24:45.068Z,23.70
2018-06-16T17:27:14.508Z,24.00
2018-06-16T17:29:43.746Z,24.40
2018-06-16T17:32:13.071Z,24.40
2018-06-16T17:34:42.329Z,24.30
2018-06-16T17:37:11.613Z,24.40
2018-06-16T17:42:10.202Z,24.10
2018-06-16T17:44:39.581Z,24.00
2018-06-16T17:47:09.784Z,24.00
2018-06-16T17:49:39.289Z,24.00
2018-06-16T17:52:08.693Z,23.90
2018-06-16T17:54:37.948Z,23.90
2018-06-16T17:57:07.232Z,23.70
2018-06-16T17:59:36.660Z,23.60
2018-06-16T18:02:05.931Z,23.40
2018-06-16T18:04:35.206Z,23.30
2018-06-16T18:07:04.543Z,23.30
2018-06-16T18:09:33.840Z,23.30
2018-06-16T18:12:03.165Z,23.30
2018-06-16T18:14:32.417Z,23.20
2018-06-16T18:19:30.572Z,23.00
2018-06-16T18:21:59.943Z,23.00
2018-06-16T18:24:29.184Z,22.90
2018-06-16T18:26:58.493Z,22.90
2018-06-16T18:29:28.107Z,22.80
2018-06-16T18:31:57.416Z,22.70
2018-06-16T18:34:26.733Z,22.70
2018-06-16T18:36:55.988Z,22.60
2018-06-16T18:39:25.267Z,22.60
2018-06-16T18:41:54.586Z,22.50
2018-06-16T18:44:23.897Z,22.40
2018-06-16T18:46:53.195Z,22.30
2018-06-16T18:49:22.483Z,22.30
2018-06-16T18:51:51.776Z,22.10
2018-06-16T18:54:21.121Z,22.00
2018-06-16T18:56:50.442Z,21.70
2018-06-16T18:59:19.686Z,21.80
2018-06-16T19:01:48.984Z,21.60
2018-06-16T19:04:18.312Z,21.60
2018-06-16T19:06:47.749Z,21.50
2018-06-16T19:09:17.058Z,21.40
2018-06-16T19:11:46.639Z,21.40
2018-06-16T19:14:16.008Z,21.30
2018-06-16T19:16:45.358Z,21.20
2018-06-16T19:19:14.850Z,21.20
2018-06-16T19:21:44.356Z,21.10
2018-06-16T19:24:13.724Z,21.00
2018-06-16T19:26:43.091Z,21.00
2018-06-16T19:31:41.236Z,20.70
2018-06-16T19:34:10.541Z,20.70
2018-06-16T19:36:39.785Z,20.70
2018-06-16T19:39:11.180Z,20.70
2018-06-16T19:41:41.338Z,20.80
2018-06-16T19:46:39.680Z,20.40
2018-06-16T19:49:09.073Z,20.30
2018-06-16T19:51:38.445Z,20.30
2018-06-16T19:56:36.547Z,20.30
2018-06-16T19:59:05.958Z,20.20
2018-06-16T20:01:35.231Z,20.20
2018-06-16T20:04:04.552Z,20.00
2018-06-16T20:06:33.834Z,20.00
2018-06-16T20:09:03.291Z,19.90
2018-06-16T20:11:32.563Z,19.90
2018-06-16T20:14:02.211Z,19.70
2018-06-16T20:16:31.980Z,19.70
2018-06-16T20:19:01.236Z,19.70
2018-06-16T20:21:30.536Z,19.60
2018-06-16T20:23:59.869Z,19.50
2018-06-16T20:26:29.263Z,19.40
2018-06-16T20:28:58.579Z,19.30
2018-06-16T20:31:27.861Z,19.30
2018-06-16T20:36:26.148Z,19.20
2018-06-16T20:41:24.434Z,19.30
2018-06-16T20:43:53.758Z,19.20
2018-06-16T20:46:23.055Z,19.20
2018-06-16T20:48:52.402Z,19.20
2018-06-16T20:51:21.736Z,19.20
2018-06-16T20:53:51.025Z,19.20
2018-06-16T20:56:20.309Z,19.10
2018-06-16T20:58:49.662Z,19.20
2018-06-16T21:01:19.207Z,19.00
2018-06-16T21:03:48.713Z,19.10
2018-06-16T21:06:19.226Z,19.10
2018-06-16T21:08:48.490Z,19.00
2018-06-16T21:11:17.769Z,19.00
2018-06-16T21:13:47.246Z,19.00
2018-06-16T21:16:16.570Z,18.90
2018-06-16T21:21:14.788Z,18.80
2018-06-16T21:23:44.212Z,18.80
2018-06-16T21:26:13.530Z,18.90
2018-06-16T21:28:42.861Z,18.90
2018-06-16T21:31:12.155Z,18.80
2018-06-16T21:33:41.405Z,18.70
2018-06-16T21:36:10.682Z,18.70
2018-06-16T21:38:40.004Z,18.80
2018-06-16T21:41:09.272Z,18.70
2018-06-16T21:43:38.518Z,18.60
2018-06-16T21:46:07.844Z,18.70
2018-06-16T21:48:37.152Z,18.70
2018-06-16T21:51:06.453Z,18.80
2018-06-16T21:53:35.732Z,18.90
2018-06-16T21:56:05.171Z,19.00
2018-06-16T21:58:34.502Z,19.20
2018-06-16T22:01:03.845Z,19.40
2018-06-16T22:03:33.116Z,19.50
2018-06-16T22:06:02.416Z,19.60
2018-06-16T22:08:32.267Z,19.70
2018-06-16T22:11:02.876Z,19.70
2018-06-16T22:13:32.499Z,19.70
2018-06-16T22:16:01.832Z,19.70
2018-06-16T22:18:31.202Z,19.80
2018-06-16T22:21:00.523Z,19.70
2018-06-16T22:23:30.113Z,19.70
2018-06-16T22:26:00.184Z,19.60
2018-06-16T22:28:29.605Z,19.50
2018-06-16T22:30:58.894Z,19.40
2018-06-16T22:33:28.502Z,19.40
2018-06-16T22:35:58.613Z,19.30
2018-06-16T22:38:28.193Z,19.30
2018-06-16T22:40:57.639Z,19.20
2018-06-16T22:43:26.954Z,19.20
2018-06-16T22:45:56.316Z,19.20
2018-06-16T22:48:25.673Z,19.20
2018-06-16T22:50:55.994Z,19.10
2018-06-16T22:53:25.379Z,19.10
2018-06-16T22:55:54.643Z,19.00
2018-06-16T22:58:23.969Z,18.90
2018-06-16T23:00:53.243Z,18.80
2018-06-16T23:03:22.544Z,18.70
2018-06-16T23:08:20.717Z,18.40
2018-06-16T23:10:49.981Z,18.30
2018-06-16T23:13:19.461Z,18.30
2018-06-16T23:15:48.767Z,18.40
2018-06-16T23:18:18.015Z,18.30
2018-06-16T23:20:47.352Z,18.30
2018-06-16T23:23:16.682Z,18.40
2018-06-16T23:25:45.962Z,18.30
2018-06-16T23:28:15.245Z,18.30
2018-06-16T23:30:44.593Z,18.20
2018-06-16T23:33:13.960Z,18.20
2018-06-16T23:35:43.255Z,18.20
2018-06-16T23:38:12.567Z,18.20
2018-06-16T23:40:42.208Z,18.10
2018-06-16T23:43:11.462Z,18.10
2018-06-16T23:45:40.701Z,18.10
2018-06-16T23:48:10.006Z,18.10
2018-06-16T23:50:39.299Z,18.00
2018-06-16T23:53:08.658Z,17.80
2018-06-16T23:55:37.938Z,17.70
2018-06-16T23:58:07.297Z,17.70
